Time;durP1;ratioP1;P1;durP2;ratioP2;P2;SDS_P1;SDS_P2;PMS_P1;PMS_P2;Temp;Humidity;BMP_temperature;BMP_pressure;BME280_temperature;BME280_humidity;BME280_pressure;Samples;Min_cycle;Max_cycle;Signal;HPM_P1;HPM_P2
2023/03/07 00:00:54;;;;;;;;;;;;;;;3.17;100.00;161398.91;5092122;28;20446;-61
2023/03/07 00:03:19;;;;;;;;;;;;;;;3.24;100.00;161415.09;5078412;28;19966;-62
2023/03/07 00:05:45;;;;;;;;;;;;;;;3.25;100.00;161419.09;5072001;28;20375;-62
2023/03/07 00:08:10;;;;;;;;;;;;;;;3.26;100.00;161420.41;5072995;28;19912;-62
2023/03/07 00:10:35;;;;;;;;;;;;;;;3.24;100.00;161415.09;5071669;28;20298;-62
2023/03/07 00:13:00;;;;;;;;;;;;;;;3.25;100.00;161419.09;5073789;28;19909;-62
2023/03/07 00:15:25;;;;;;;;;;;;;;;3.21;100.00;161407.00;5071815;28;19912;-62
2023/03/07 00:17:51;;;;;;;;;;;;;;;3.22;100.00;161409.69;5073112;28;19928;-62
2023/03/07 00:20:16;;;;;;;;;;;;;;;3.26;100.00;161420.41;5071714;28;19913;-62
2023/03/07 00:22:41;;;;;;;;;;;;;;;3.29;100.00;161428.50;5072949;28;19974;-62
2023/03/07 00:25:07;;;;;;;;;;;;;;;3.26;100.00;161420.41;5071962;28;19951;-62
2023/03/07 00:27:33;;;;;;;;;;;;;;;3.31;100.00;161433.88;5073111;28;19912;-62
2023/03/07 00:29:58;;;;;;;;;;;;;;;3.31;100.00;161435.19;5071664;28;19920;-62
2023/03/07 00:32:24;;;;;;;;;;;;;;;3.31;100.00;161433.88;5073340;28;19908;-62
2023/03/07 00:34:49;;;;;;;;;;;;;;;3.36;100.00;161445.94;5071680;28;19965;-62
2023/03/07 00:37:14;;;;;;;;;;;;;;;3.40;100.00;161458.03;5072711;28;19931;-62
2023/03/07 00:39:40;;;;;;;;;;;;;;;3.43;100.00;161466.09;5071593;28;19915;-62
2023/03/07 00:42:05;;;;;;;;;;;;;;;3.37;100.00;161450.00;5073134;28;19916;-62
2023/03/07 00:44:31;;;;;;;;;;;;;;;3.40;100.00;161458.03;5071207;28;19927;-61
2023/03/07 00:46:56;;;;;;;;;;;;;;;3.44;100.00;161468.81;5082416;28;19922;-62
2023/03/07 00:49:22;;;;;;;;;;;;;;;3.49;100.00;161480.91;5093082;28;19998;-62
2023/03/07 00:51:47;;;;;;;;;;;;;;;3.51;100.00;161484.91;5091161;28;19958;-62
2023/03/07 00:54:12;;;;;;;;;;;;;;;3.55;100.00;161495.63;5093518;28;20349;-62
2023/03/07 00:56:37;;;;;;;;;;;;;;;3.58;100.00;161503.72;5091319;28;19919;-62
2023/03/07 00:59:02;;;;;;;;;;;;;;;3.54;100.00;161493.00;5092668;28;19940;-62
2023/03/07 01:01:28;;;;;;;;;;;;;;;3.53;100.00;161490.31;5082713;28;20434;-62
2023/03/07 01:03:53;;;;;;;;;;;;;;;3.56;100.00;161498.34;5072608;28;19954;-62
2023/03/07 01:06:20;;;;;;;;;;;;;;;3.59;100.00;161506.41;5070686;28;19912;-62
2023/03/07 01:08:45;;;;;;;;;;;;;;;3.61;100.00;161511.81;5072587;28;19908;-61
2023/03/07 01:11:10;;;;;;;;;;;;;;;3.56;100.00;161498.34;5070717;28;20054;-62
2023/03/07 01:13:35;;;;;;;;;;;;;;;3.57;100.00;161501.03;5071841;28;20003;-61
2023/03/07 01:16:08;;;;;;;;;;;;;;;3.57;100.00;161501.03;5076044;28;20391;-61
2023/03/07 01:18:33;;;;;;;;;;;;;;;3.59;100.00;161506.41;5092027;28;19960;-61
2023/03/07 01:20:58;;;;;;;;;;;;;;;3.57;100.00;161501.03;5088923;28;19919;-61
2023/03/07 01:23:24;;;;;;;;;;;;;;;3.58;100.00;161503.72;5092727;28;19908;-60
2023/03/07 01:25:49;;;;;;;;;;;;;;;3.63;100.00;161517.13;5090836;28;19912;-60
2023/03/07 01:28:14;;;;;;;;;;;;;;;3.63;100.00;161518.50;5091962;28;20435;-60
2023/03/07 01:30:40;;;;;;;;;;;;;;;3.70;100.00;161535.94;5090760;28;19912;-60
2023/03/07 01:33:05;;;;;;;;;;;;;;;3.62;100.00;161514.44;5092344;28;19915;-61
2023/03/07 01:35:35;;;;;;;;;;;;;;;3.60;100.00;161509.09;5086106;28;19974;-60
2023/03/07 01:38:00;;;;;;;;;;;;;;;3.56;100.00;161498.34;5071791;28;19952;-60
2023/03/07 01:40:25;;;;;;;;;;;;;;;3.63;100.00;161517.13;5070324;28;20002;-61
2023/03/07 01:42:52;;;;;;;;;;;;;;;3.55;100.00;161495.63;5071306;28;19908;-60
2023/03/07 01:45:32;;;;;;;;;;;;;;;3.43;100.00;161466.09;5070649;28;19913;-60
2023/03/07 01:47:57;;;;;;;;;;;;;;;3.40;100.00;161458.03;5051731;28;19920;-60
2023/03/07 01:50:22;;;;;;;;;;;;;;;3.37;100.00;161450.00;5050022;28;20391;-60
2023/03/07 01:52:49;;;;;;;;;;;;;;;3.35;100.00;161444.59;5051196;28;19962;-60
2023/03/07 01:55:16;;;;;;;;;;;;;;;3.36;100.00;161445.94;5050581;28;19913;-60
2023/03/07 01:57:43;;;;;;;;;;;;;;;3.41;100.00;161460.72;5051039;28;20273;-60
2023/03/07 02:00:10;;;;;;;;;;;;;;;3.43;100.00;161466.09;5050553;28;20339;-60
2023/03/07 02:02:38;;;;;;;;;;;;;;;3.46;100.00;161474.13;5070629;28;19962;-60
2023/03/07 02:05:03;;;;;;;;;;;;;;;3.51;100.00;161484.91;5069895;28;19912;-61
2023/03/07 02:07:32;;;;;;;;;;;;;;;3.59;100.00;161506.41;5071846;28;19970;-61
2023/03/07 02:09:57;;;;;;;;;;;;;;;3.61;100.00;161511.81;5070126;28;19977;-60
2023/03/07 02:12:23;;;;;;;;;;;;;;;3.67;100.00;161526.53;5071062;28;20513;-60
2023/03/07 02:14:48;;;;;;;;;;;;;;;3.62;100.00;161515.81;5069856;28;19916;-61
2023/03/07 02:17:14;;;;;;;;;;;;;;;3.61;100.00;161511.81;5071153;28;19962;-60
2023/03/07 02:19:47;;;;;;;;;;;;;;;3.60;100.00;161509.09;5069384;28;19920;-60
2023/03/07 02:22:15;;;;;;;;;;;;;;;3.63;100.00;161517.13;5071358;28;19904;-61
2023/03/07 02:24:59;;;;;;;;;;;;;;;3.49;100.00;161480.91;5069589;28;19915;-61
2023/03/07 02:27:26;;;;;;;;;;;;;;;3.48;100.00;161479.53;5070896;28;19920;-60
2023/03/07 02:29:52;;;;;;;;;;;;;;;3.48;100.00;161479.53;5069696;28;19923;-61
2023/03/07 02:32:17;;;;;;;;;;;;;;;3.46;100.00;161472.81;5087015;28;20328;-61
2023/03/07 02:34:42;;;;;;;;;;;;;;;3.49;100.00;161482.22;5089024;28;19922;-61
2023/03/07 02:37:13;;;;;;;;;;;;;;;3.45;100.00;161470.13;5091427;28;19908;-60
2023/03/07 02:39:40;;;;;;;;;;;;;;;3.41;100.00;161459.41;5089364;28;20278;-60
2023/03/07 02:42:07;;;;;;;;;;;;;;;3.38;100.00;161451.31;5090935;28;20387;-60
2023/03/07 02:44:32;;;;;;;;;;;;;;;3.36;100.00;161447.31;5089480;28;19919;-60
2023/03/07 02:46:57;;;;;;;;;;;;;;;3.33;100.00;161439.22;5091386;28;20276;-60
2023/03/07 02:49:22;;;;;;;;;;;;;;;3.32;100.00;161436.53;5091016;28;19908;-60
2023/03/07 02:51:48;;;;;;;;;;;;;;;3.34;100.00;161441.91;5089644;28;19916;-59
2023/03/07 02:54:13;;;;;;;;;;;;;;;3.33;100.00;161439.22;5091325;28;19907;-61
2023/03/07 02:56:38;;;;;;;;;;;;;;;3.29;100.00;161429.81;5089229;28;19918;-60
2023/03/07 02:59:03;;;;;;;;;;;;;;;3.35;100.00;161444.59;5090934;28;19922;-61
2023/03/07 03:01:29;;;;;;;;;;;;;;;3.35;100.00;161444.59;5075478;28;19917;-61
2023/03/07 03:03:54;;;;;;;;;;;;;;;3.36;100.00;161445.94;5070526;28;20291;-61
2023/03/07 03:06:20;;;;;;;;;;;;;;;3.35;100.00;161443.28;5068921;28;20004;-60
2023/03/07 03:08:45;;;;;;;;;;;;;;;3.38;100.00;161452.69;5070664;28;19963;-61
2023/03/07 03:11:10;;;;;;;;;;;;;;;3.37;100.00;161450.00;5069546;28;19912;-61
2023/03/07 03:13:35;;;;;;;;;;;;;;;3.39;100.00;161455.34;5070419;28;19912;-61
2023/03/07 03:16:00;;;;;;;;;;;;;;;3.37;100.00;161450.00;5080480;28;19927;-61
2023/03/07 03:18:26;;;;;;;;;;;;;;;3.36;100.00;161447.31;5090744;28;19995;-61
2023/03/07 03:20:52;;;;;;;;;;;;;;;3.35;100.00;161444.59;5088824;28;19916;-61
2023/03/07 03:23:17;;;;;;;;;;;;;;;3.32;100.00;161436.53;5072752;28;19908;-61
2023/03/07 03:25:42;;;;;;;;;;;;;;;3.30;100.00;161431.19;5089323;28;20390;-61
2023/03/07 03:28:07;;;;;;;;;;;;;;;3.26;100.00;161421.78;5090409;28;19912;-61
2023/03/07 03:30:34;;;;;;;;;;;;;;;3.32;100.00;161436.53;5078514;28;19917;-61
2023/03/07 03:33:00;;;;;;;;;;;;;;;3.31;100.00;161435.19;5070364;28;20412;-61
2023/03/07 03:35:25;;;;;;;;;;;;;;;3.29;100.00;161428.50;5069050;28;19993;-61
2023/03/07 03:37:50;;;;;;;;;;;;;;;3.27;100.00;161424.47;5070363;28;19915;-61
2023/03/07 03:40:16;;;;;;;;;;;;;;;3.30;100.00;161431.19;5069115;28;19958;-61
2023/03/07 03:42:42;;;;;;;;;;;;;;;3.23;100.00;161413.72;5069729;28;20272;-61
2023/03/07 03:45:08;;;;;;;;;;;;;;;3.21;100.00;161408.31;5072105;28;19912;-61
2023/03/07 03:47:34;;;;;;;;;;;;;;;3.17;100.00;161398.91;5074115;28;19912;-61
2023/03/07 03:49:59;;;;;;;;;;;;;;;3.17;100.00;161398.91;5072427;28;19913;-61
2023/03/07 03:52:24;;;;;;;;;;;;;;;3.17;100.00;161397.59;5074025;28;20061;-61
2023/03/07 03:54:49;;;;;;;;;;;;;;;3.16;100.00;161396.22;5091530;28;19912;-61
2023/03/07 03:57:16;;;;;;;;;;;;;;;3.11;100.00;161382.81;5093814;28;19991;-61
2023/03/07 03:59:42;;;;;;;;;;;;;;;3.14;100.00;161390.88;5091781;28;19912;-61
2023/03/07 04:02:07;;;;;;;;;;;;;;;3.18;100.00;161401.63;5079348;28;20412;-61
2023/03/07 04:04:32;;;;;;;;;;;;;;;3.10;100.00;161380.13;5071932;28;19923;-61
2023/03/07 04:06:57;;;;;;;;;;;;;;;3.15;100.00;161393.59;5073825;28;19966;-61
2023/03/07 04:09:23;;;;;;;;;;;;;;;3.18;100.00;161400.28;5073486;28;19931;-60
2023/03/07 04:11:48;;;;;;;;;;;;;;;3.16;100.00;161396.22;5071722;28;20010;-62
2023/03/07 04:14:13;;;;;;;;;;;;;;;3.19;100.00;161402.97;5074077;28;19984;-61
2023/03/07 04:16:38;;;;;;;;;;;;;;;3.11;100.00;161381.50;5072003;28;19912;-62
2023/03/07 04:19:03;;;;;;;;;;;;;;;3.12;100.00;161385.50;5073028;28;19923;-62
2023/03/07 04:21:28;;;;;;;;;;;;;;;3.10;100.00;161380.13;5072054;28;20370;-62
2023/03/07 04:23:56;;;;;;;;;;;;;;;3.16;100.00;161396.22;5073399;28;19909;-62
2023/03/07 04:26:21;;;;;;;;;;;;;;;3.11;100.00;161381.50;5071635;28;19916;-62
2023/03/07 04:28:48;;;;;;;;;;;;;;;3.10;100.00;161380.13;5073355;28;19912;-62
2023/03/07 04:31:17;;;;;;;;;;;;;;;3.10;100.00;161378.78;5085677;28;20392;-62
2023/03/07 04:33:43;;;;;;;;;;;;;;;3.09;100.00;161376.09;5092908;28;20432;-62
2023/03/07 04:36:08;;;;;;;;;;;;;;;3.10;100.00;161380.13;5092132;28;19915;-62
2023/03/07 04:38:34;;;;;;;;;;;;;;;3.10;100.00;161380.13;5092649;28;19908;-62
2023/03/07 04:40:59;;;;;;;;;;;;;;;3.09;100.00;161376.09;5091531;28;19926;-62
2023/03/07 04:43:24;;;;;;;;;;;;;;;3.12;100.00;161385.50;5093482;28;19912;-61
2023/03/07 04:45:51;;;;;;;;;;;;;;;3.14;100.00;161390.88;5091591;28;20007;-61
2023/03/07 04:48:16;;;;;;;;;;;;;;;3.13;100.00;161388.19;5092856;28;19948;-61
2023/03/07 04:50:41;;;;;;;;;;;;;;;3.09;100.00;161377.44;5091693;28;19999;-61
2023/03/07 04:53:06;;;;;;;;;;;;;;;3.13;100.00;161388.19;5093096;28;20379;-61
2023/03/07 04:55:31;;;;;;;;;;;;;;;3.17;100.00;161398.91;5090111;28;19912;-61
2023/03/07 04:57:57;;;;;;;;;;;;;;;3.18;100.00;161401.63;5092959;28;20006;-61
2023/03/07 05:00:22;;;;;;;;;;;;;;;3.19;100.00;161402.97;5079597;28;19919;-62
2023/03/07 05:02:48;;;;;;;;;;;;;;;3.20;100.00;161404.31;5071953;28;19912;-61
2023/03/07 05:05:14;;;;;;;;;;;;;;;3.16;100.00;161396.22;5071406;28;19920;-62
2023/03/07 05:07:39;;;;;;;;;;;;;;;3.20;100.00;161405.69;5072304;28;20403;-63
2023/03/07 05:10:05;;;;;;;;;;;;;;;3.16;100.00;161396.22;5070628;28;20360;-63
2023/03/07 05:12:30;;;;;;;;;;;;;;;3.15;100.00;161393.59;5091836;28;19919;-61
2023/03/07 05:14:55;;;;;;;;;;;;;;;3.09;100.00;161377.44;5075498;28;19942;-60
2023/03/07 05:17:20;;;;;;;;;;;;;;;3.09;100.00;161377.44;5072733;28;19912;-60
2023/03/07 05:19:45;;;;;;;;;;;;;;;3.21;100.00;161407.00;5090652;28;20366;-60
2023/03/07 05:22:11;;;;;;;;;;;;;;;3.15;100.00;161393.59;5092594;28;20288;-60
2023/03/07 05:24:36;;;;;;;;;;;;;;;3.13;100.00;161388.19;5074849;28;19908;-59
2023/03/07 05:27:01;;;;;;;;;;;;;;;3.02;100.00;161358.63;5070946;28;19920;-60
2023/03/07 05:29:26;;;;;;;;;;;;;;;2.87;100.00;161318.38;5074507;28;19908;-59
2023/03/07 05:31:52;;;;;;;;;;;;;;;2.38;100.00;161193.47;5074506;28;20374;-60
2023/03/07 05:34:17;;;;;;;;;;;;;;;1.79;100.00;161039.16;5092071;28;19908;-60
2023/03/07 05:36:42;;;;;;;;;;;;;;;1.42;100.00;160942.56;5070217;28;19970;-60
2023/03/07 05:39:08;;;;;;;;;;;;;;;1.26;100.00;160902.31;5071586;28;19908;-60
2023/03/07 05:41:33;;;;;;;;;;;;;;;1.13;100.00;160866.06;5050854;28;19928;-60
2023/03/07 05:43:58;;;;;;;;;;;;;;;1.03;100.00;160840.59;5049931;28;20443;-60
2023/03/07 05:46:24;;;;;;;;;;;;;;;1.00;100.00;160832.59;5049985;28;19912;-60
2023/03/07 05:48:49;;;;;;;;;;;;;;;0.94;100.00;160817.81;5050796;28;19908;-60
2023/03/07 05:51:14;;;;;;;;;;;;;;;0.95;100.00;160821.84;5049778;28;19939;-60
2023/03/07 05:53:40;;;;;;;;;;;;;;;0.97;100.00;160824.53;5050673;28;20446;-60
2023/03/07 05:56:05;;;;;;;;;;;;;;;1.02;100.00;160837.91;5060746;28;19913;-60
2023/03/07 05:58:30;;;;;;;;;;;;;;;1.06;100.00;160848.69;5071097;28;19919;-60
2023/03/07 06:00:55;;;;;;;;;;;;;;;1.10;100.00;160860.75;5069853;28;19912;-60
2023/03/07 06:03:21;;;;;;;;;;;;;;;1.15;100.00;160872.81;5071325;28;19912;-59
2023/03/07 06:05:49;;;;;;;;;;;;;;;1.18;100.00;160880.84;5069984;28;19913;-59
2023/03/07 06:08:15;;;;;;;;;;;;;;;1.25;100.00;160899.63;5071326;28;19913;-59
2023/03/07 06:10:41;;;;;;;;;;;;;;;1.27;100.00;160905.00;5069513;28;20299;-60
2023/03/07 06:13:11;;;;;;;;;;;;;;;1.37;100.00;160929.16;5071484;28;20381;-59
2023/03/07 06:15:36;;;;;;;;;;;;;;;1.38;100.00;160931.78;5070099;28;20458;-59
2023/03/07 06:18:01;;;;;;;;;;;;;;;1.46;100.00;160951.94;5071034;28;19952;-59
2023/03/07 06:20:26;;;;;;;;;;;;;;;1.52;100.00;160969.41;5070079;28;19912;-59
2023/03/07 06:22:52;;;;;;;;;;;;;;;1.58;100.00;160985.50;5071214;28;20306;-59
2023/03/07 06:25:20;;;;;;;;;;;;;;;1.66;100.00;161004.28;5069581;28;19995;-60
2023/03/07 06:27:45;;;;;;;;;;;;;;;1.70;100.00;161015.00;5071100;28;19919;-60
2023/03/07 06:30:11;;;;;;;;;;;;;;;1.73;100.00;161023.06;5070004;28;19999;-59
2023/03/07 06:32:36;;;;;;;;;;;;;;;1.72;100.00;161020.38;5070618;28;19911;-59
2023/03/07 06:35:01;;;;;;;;;;;;;;;1.72;100.00;161020.38;5069304;28;20007;-60
2023/03/07 06:37:26;;;;;;;;;;;;;;;1.65;100.00;161001.59;5070061;28;19912;-59
2023/03/07 06:39:52;;;;;;;;;;;;;;;1.58;100.00;160985.50;5068284;28;19924;-59
2023/03/07 06:42:17;;;;;;;;;;;;;;;1.53;100.00;160972.03;5070449;28;19925;-59
2023/03/07 06:44:43;;;;;;;;;;;;;;;1.49;100.00;160961.34;5068810;28;20283;-59
2023/03/07 06:47:08;;;;;;;;;;;;;;;1.43;100.00;160945.25;5069874;28;19913;-59
2023/03/07 06:49:33;;;;;;;;;;;;;;;1.43;100.00;160945.25;5068914;28;20279;-59
2023/03/07 06:51:59;;;;;;;;;;;;;;;1.43;100.00;160945.25;5070613;28;19999;-59
2023/03/07 06:54:24;;;;;;;;;;;;;;;1.36;100.00;160926.47;5070106;28;19908;-59
2023/03/07 06:56:50;;;;;;;;;;;;;;;1.34;100.00;160921.09;5069412;28;19916;-59
2023/03/07 06:59:16;;;;;;;;;;;;;;;1.33;100.00;160919.78;5071052;28;20003;-59
2023/03/07 07:01:41;;;;;;;;;;;;;;;1.27;100.00;160905.00;5068602;28;20062;-59
2023/03/07 07:04:06;;;;;;;;;;;;;;;1.22;100.00;160891.59;5070898;28;19952;-59
2023/03/07 07:06:31;;;;;;;;;;;;;;;1.19;100.00;160883.53;5069342;28;20379;-59
2023/03/07 07:08:57;;;;;;;;;;;;;;;1.16;100.00;160875.47;5070010;28;19908;-59
2023/03/07 07:11:23;;;;;;;;;;;;;;;1.09;100.00;160858.06;5068785;28;19913;-59
2023/03/07 07:13:49;;;;;;;;;;;;;;;1.08;100.00;160854.06;5070675;28;19979;-59
2023/03/07 07:16:15;;;;;;;;;;;;;;;0.99;100.00;160829.91;5069199;28;19916;-59
2023/03/07 07:18:40;;;;;;;;;;;;;;;0.95;100.00;160820.50;5071418;28;19908;-60
2023/03/07 07:21:05;;;;;;;;;;;;;;;0.89;100.00;160805.75;5073205;28;20314;-59
2023/03/07 07:23:30;;;;;;;;;;;;;;;0.86;100.00;160797.69;5073635;28;19916;-59
2023/03/07 07:25:55;;;;;;;;;;;;;;;0.85;100.00;160795.03;5072961;28;19912;-59
2023/03/07 07:28:21;;;;;;;;;;;;;;;0.80;100.00;160781.59;5074695;28;19923;-59
2023/03/07 07:30:46;;;;;;;;;;;;;;;0.76;100.00;160770.91;5072574;28;20367;-59
2023/03/07 07:33:11;;;;;;;;;;;;;;;0.74;100.00;160765.53;5074560;28;19923;-60
2023/03/07 07:35:38;;;;;;;;;;;;;;;0.73;100.00;160764.19;5072892;28;20260;-59
2023/03/07 07:38:03;;;;;;;;;;;;;;;0.72;100.00;160760.13;5074258;28;19946;-59
2023/03/07 07:40:28;;;;;;;;;;;;;;;0.71;100.00;160757.50;5071955;28;19917;-59
2023/03/07 07:42:53;;;;;;;;;;;;;;;0.76;100.00;160770.91;5073624;28;19912;-60
2023/03/07 07:45:22;;;;;;;;;;;;;;;0.76;100.00;160770.91;5072228;28;20361;-59
2023/03/07 07:47:48;;;;;;;;;;;;;;;0.77;100.00;160773.59;5074217;28;19927;-60
2023/03/07 07:50:13;;;;;;;;;;;;;;;0.79;100.00;160778.91;5072606;28;20555;-59
2023/03/07 07:52:39;;;;;;;;;;;;;;;0.78;100.00;160776.28;5073802;28;19912;-59
2023/03/07 07:55:04;;;;;;;;;;;;;;;0.77;100.00;160773.59;5072659;28;20278;-59
2023/03/07 07:57:29;;;;;;;;;;;;;;;0.73;100.00;160762.84;5074266;28;19909;-59
2023/03/07 07:59:54;;;;;;;;;;;;;;;0.66;100.00;160745.44;5072480;28;19912;-60
2023/03/07 08:02:19;;;;;;;;;;;;;;;0.61;100.00;160732.00;5073199;28;19912;-60
2023/03/07 08:04:46;;;;;;;;;;;;;;;0.62;100.00;160736.06;5072554;28;19925;-59
2023/03/07 08:07:12;;;;;;;;;;;;;;;0.66;100.00;160744.06;5074321;28;19916;-60
2023/03/07 08:09:38;;;;;;;;;;;;;;;0.65;100.00;160741.38;5071946;28;19959;-60
2023/03/07 08:12:03;;;;;;;;;;;;;;;0.60;100.00;160730.66;5073945;28;19935;-60
2023/03/07 08:14:28;;;;;;;;;;;;;;;0.61;100.00;160733.34;5072643;28;20271;-59
2023/03/07 08:16:53;;;;;;;;;;;;;;;0.64;100.00;160740.06;5073115;28;19915;-60
2023/03/07 08:19:19;;;;;;;;;;;;;;;0.69;100.00;160752.13;5073595;28;20331;-60
2023/03/07 08:21:44;;;;;;;;;;;;;;;0.70;100.00;160754.81;5071650;28;19912;-60
2023/03/07 08:24:09;;;;;;;;;;;;;;;0.77;100.00;160773.59;5073213;28;19916;-60
2023/03/07 08:26:34;;;;;;;;;;;;;;;0.78;100.00;160776.28;5071701;28;19987;-59
2023/03/07 08:28:59;;;;;;;;;;;;;;;0.78;100.00;160776.28;5073574;28;19913;-60
2023/03/07 08:31:24;;;;;;;;;;;;;;;0.75;100.00;160768.22;5071400;28;20307;-60
2023/03/07 08:33:50;;;;;;;;;;;;;;;0.69;100.00;160752.13;5073079;28;19909;-60
2023/03/07 08:36:15;;;;;;;;;;;;;;;0.80;100.00;160781.59;5071598;28;19912;-60
2023/03/07 08:38:41;;;;;;;;;;;;;;;0.76;100.00;160770.91;5072628;28;19912;-60
2023/03/07 08:41:07;;;;;;;;;;;;;;;0.75;100.00;160768.22;5071485;28;20457;-60
2023/03/07 08:43:35;;;;;;;;;;;;;;;0.73;100.00;160762.84;5073218;28;20002;-60
2023/03/07 08:46:00;;;;;;;;;;;;;;;0.74;100.00;160766.88;5071498;28;19927;-60
2023/03/07 08:48:26;;;;;;;;;;;;;;;0.77;100.00;160773.59;5073170;28;19916;-60
2023/03/07 08:50:51;;;;;;;;;;;;;;;0.72;100.00;160761.50;5071372;28;19916;-60
2023/03/07 08:53:17;;;;;;;;;;;;;;;0.78;100.00;160776.28;5072992;28;19915;-60
2023/03/07 08:55:42;;;;;;;;;;;;;;;0.81;100.00;160782.97;5071254;28;19966;-60
2023/03/07 08:58:08;;;;;;;;;;;;;;;0.78;100.00;160777.59;5073175;28;19909;-60
2023/03/07 09:00:33;;;;;;;;;;;;;;;0.71;100.00;160757.50;5070229;28;19917;-60
2023/03/07 09:03:00;;;;;;;;;;;;;;;0.75;100.00;160768.22;5072507;28;19908;-60
2023/03/07 09:05:25;;;;;;;;;;;;;;;0.66;100.00;160744.06;5070898;28;19916;-60
2023/03/07 09:07:51;;;;;;;;;;;;;;;0.77;100.00;160773.59;5069282;28;19920;-60
2023/03/07 09:10:19;;;;;;;;;;;;;;;0.79;100.00;160778.91;5070717;28;19924;-60
2023/03/07 09:12:44;;;;;;;;;;;;;;;0.90;100.00;160808.44;5069297;28;20394;-60
2023/03/07 09:15:09;;;;;;;;;;;;;;;0.94;100.00;160819.16;5070363;28;19913;-60
2023/03/07 09:17:34;;;;;;;;;;;;;;;1.09;100.00;160856.69;5071849;28;19915;-60
2023/03/07 09:20:00;;;;;;;;;;;;;;;1.37;100.00;160929.16;5070981;28;19912;-60
2023/03/07 09:22:26;;;;;;;;;;;;;;;1.62;100.00;160993.53;5072223;28;19920;-60
2023/03/07 09:24:51;;;;;;;;;;;;;;;1.80;100.00;161040.47;5070866;28;19962;-60
2023/03/07 09:27:16;;;;;;;;;;;;;;;1.72;100.00;161021.69;5072299;28;20295;-60
2023/03/07 09:29:41;;;;;;;;;;;;;;;1.94;100.00;161076.72;5070395;28;20050;-59
2023/03/07 09:32:06;;;;;;;;;;;;;;;2.05;100.00;161106.22;5072172;28;19915;-60
2023/03/07 09:34:32;;;;;;;;;;;;;;;2.09;100.00;161117.00;5071047;28;19912;-59
2023/03/07 09:36:57;;;;;;;;;;;;;;;1.99;100.00;161090.13;5072079;28;20369;-60
2023/03/07 09:39:22;;;;;;;;;;;;;;;2.14;100.00;161130.41;5071953;28;20038;-60
2023/03/07 09:42:06;;;;;;;;;;;;;;;2.15;100.00;161133.09;5069642;28;19931;-60
2023/03/07 09:44:37;;;;;;;;;;;;;;;2.35;100.00;161185.44;5070418;28;19912;-60
2023/03/07 09:47:17;;;;;;;;;;;;;;;2.17;100.00;161138.47;5071448;28;19932;-60
2023/03/07 09:49:46;;;;;;;;;;;;;;;2.15;100.00;161133.09;5068454;28;19912;-60
2023/03/07 09:52:13;;;;;;;;;;;;;;;2.47;100.00;161216.31;5071027;28;19908;-59
2023/03/07 09:54:48;;;;;;;;;;;;;;;2.38;100.00;161193.47;5069461;28;20279;-60
2023/03/07 09:57:18;;;;;;;;;;;;;;;2.63;100.00;161256.59;5071836;28;19916;-60
2023/03/07 09:59:45;;;;;;;;;;;;;;;2.55;100.00;161236.44;5069716;28;20344;-60
2023/03/07 10:02:20;;;;;;;;;;;;;;;2.68;100.00;161271.34;5071245;28;19919;-60
2023/03/07 10:05:03;;;;;;;;;;;;;;;2.68;100.00;161270.03;5070226;28;19915;-60
2023/03/07 10:07:30;;;;;;;;;;;;;;;2.65;100.00;161263.31;5071069;28;19912;-59
2023/03/07 10:10:05;;;;;;;;;;;;;;;2.83;100.00;161310.31;5070155;28;19916;-60
2023/03/07 10:12:43;;;;;;;;;;;;;;;2.72;100.00;161280.75;5071683;28;19909;-60
2023/03/07 10:15:12;;;;;;;;;;;;;;;2.85;100.00;161315.69;5069969;28;19987;-60
2023/03/07 10:17:44;;;;;;;;;;;;;;;2.73;100.00;161283.44;5071170;28;19920;-60
2023/03/07 10:20:21;;;;;;;;;;;;;;;2.73;100.00;161283.44;5070091;28;19917;-60
2023/03/07 10:23:10;;;;;;;;;;;;;;;2.58;100.00;161244.53;5070955;28;19908;-60
2023/03/07 10:25:50;;;;;;;;;;;;;;;2.68;100.00;161271.34;5064071;28;19919;-60
2023/03/07 10:28:20;;;;;;;;;;;;;;;2.73;100.00;161282.09;5071026;28;20386;-60
2023/03/07 10:30:47;;;;;;;;;;;;;;;2.90;100.00;161327.78;5069892;28;19912;-60
2023/03/07 10:33:17;;;;;;;;;;;;;;;2.76;100.00;161291.50;5071281;28;19912;-60
2023/03/07 10:35:43;;;;;;;;;;;;;;;2.50;100.00;161224.34;5069450;28;20383;-59
2023/03/07 10:38:29;;;;;;;;;;;;;;;2.49;100.00;161220.34;5071334;28;19916;-59
2023/03/07 10:41:02;;;;;;;;;;;;;;;2.54;100.00;161235.13;5069317;28;20333;-60
2023/03/07 10:43:30;;;;;;;;;;;;;;;2.54;100.00;161233.75;5070884;28;20005;-60
2023/03/07 10:45:58;;;;;;;;;;;;;;;2.48;100.00;161217.66;5069592;28;19923;-60
2023/03/07 10:48:24;;;;;;;;;;;;;;;2.47;100.00;161216.31;5071132;28;19912;-60
2023/03/07 10:51:00;;;;;;;;;;;;;;;2.44;100.00;161208.25;5069143;28;20003;-60
2023/03/07 10:53:26;;;;;;;;;;;;;;;2.57;100.00;161240.50;5071705;28;20364;-60
2023/03/07 10:55:51;;;;;;;;;;;;;;;2.60;100.00;161248.53;5073634;28;20483;-60
2023/03/07 10:58:22;;;;;;;;;;;;;;;2.72;100.00;161280.75;5074935;28;20014;-59
2023/03/07 11:00:58;;;;;;;;;;;;;;;2.76;100.00;161291.50;5073609;28;20384;-60
2023/03/07 11:03:30;;;;;;;;;;;;;;;2.68;100.00;161271.34;5075160;28;19912;-59
2023/03/07 11:05:55;;;;;;;;;;;;;;;2.81;100.00;161304.91;5073208;28;20337;-59
2023/03/07 11:08:26;;;;;;;;;;;;;;;2.97;100.00;161345.22;5072997;28;19913;-60
2023/03/07 11:10:51;;;;;;;;;;;;;;;2.99;100.00;161350.59;5070765;28;20019;-59
2023/03/07 11:13:17;;;;;;;;;;;;;;;3.16;100.00;161394.91;5075573;28;20355;-60
2023/03/07 11:15:46;;;;;;;;;;;;;;;3.31;100.00;161433.88;5072669;28;19916;-60
2023/03/07 11:18:28;;;;;;;;;;;;;;;3.41;100.00;161460.72;5073530;28;19915;-60
2023/03/07 11:20:54;;;;;;;;;;;;;;;3.20;100.00;161404.31;5078441;28;19935;-59
2023/03/07 11:23:24;;;;;;;;;;;;;;;3.42;100.00;161463.41;5074306;28;19916;-60
2023/03/07 11:25:51;;;;;;;;;;;;;;;3.57;100.00;161501.03;5071635;28;20000;-59
2023/03/07 11:28:24;;;;;;;;;;;;;;;3.40;100.00;161458.03;5090152;28;19965;-60
2023/03/07 11:31:01;;;;;;;;;;;;;;;3.51;100.00;161484.91;5092099;28;19933;-60
2023/03/07 11:33:45;;;;;;;;;;;;;;;3.73;100.00;161544.03;5084859;28;19912;-59
2023/03/07 11:36:15;;;;;;;;;;;;;;;3.70;100.00;161535.94;5071857;28;19916;-60
2023/03/07 11:38:55;;;;;;;;;;;;;;;3.84;100.00;161570.88;5074487;28;19919;-60
2023/03/07 11:41:25;;;;;;;;;;;;;;;3.56;100.00;161498.34;5070871;28;20003;-60
2023/03/07 11:44:09;;;;;;;;;;;;;;;3.83;100.00;161568.22;5071040;28;19920;-60
2023/03/07 11:46:34;;;;;;;;;;;;;;;3.89;100.00;161585.66;5072156;28;20358;-60
2023/03/07 11:49:18;;;;;;;;;;;;;;;3.90;100.00;161587.03;5073839;28;19973;-60
2023/03/07 11:52:02;;;;;;;;;;;;;;;3.56;100.00;161499.69;5071668;28;19916;-60
2023/03/07 11:54:43;;;;;;;;;;;;;;;3.67;100.00;161526.53;5072930;28;19952;-56
2023/03/07 11:57:17;;;;;;;;;;;;;;;3.63;100.00;161517.13;5073559;28;19923;-59
2023/03/07 11:59:57;;;;;;;;;;;;;;;3.55;100.00;161497.00;5072035;28;19917;-60
2023/03/07 12:02:37;;;;;;;;;;;;;;;3.69;100.00;161533.25;5073096;28;19916;-60
2023/03/07 12:05:20;;;;;;;;;;;;;;;3.58;100.00;161503.72;5068648;28;19923;-60
2023/03/07 12:07:52;;;;;;;;;;;;;;;3.80;100.00;161562.84;5073175;28;19958;-60
2023/03/07 12:10:27;;;;;;;;;;;;;;;3.83;100.00;161569.56;5072117;28;20298;-60
2023/03/07 12:13:05;;;;;;;;;;;;;;;4.07;100.00;161632.69;5073313;28;19916;-60
2023/03/07 12:15:30;;;;;;;;;;;;;;;4.24;100.00;161675.72;5072148;28;20330;-60
2023/03/07 12:17:58;;;;;;;;;;;;;;;4.27;100.00;161683.81;5073168;28;19960;-60
2023/03/07 12:20:34;;;;;;;;;;;;;;;4.21;100.00;161667.63;5071557;28;19957;-60
2023/03/07 12:23:18;;;;;;;;;;;;;;;4.54;100.00;161753.69;5073365;28;19957;-59
2023/03/07 12:25:52;;;;;;;;;;;;;;;4.78;100.00;161815.56;5071612;28;20360;-60
2023/03/07 12:28:18;;;;;;;;;;;;;;;4.96;100.00;161862.63;5072727;28;19924;-60
2023/03/07 12:30:49;;;;;;;;;;;;;;;4.68;100.00;161791.34;5071788;28;19919;-60
2023/03/07 12:33:45;;;;;;;;;;;;;;;4.52;100.00;161748.31;5073402;28;19908;-60
2023/03/07 12:36:16;;;;;;;;;;;;;;;4.99;100.00;161872.03;5071244;28;19965;-60